Iberia, Ohio
Current Conditions -  °F | °C
As of 2:21 AM on Wednesday 22 Oct 2014 (Local Time) from KMNN Reporting Station
Haze Haze  
Wind Chill:   Ceiling: 1000
Heat Index:   Visibility: 6mi
Dew Point:   Wind: 13mph
Humidity: 89%   Direction: 340°NNW
Pressure: 30.16"   Gusts: NA
Location:  40.67°N, 82.84°W
Report Text: KMNN 220621Z AUTO 34011KT 6SM BR OVC010 06/04 A3016 RMK AO2 T00610044 TSNO
Loading
Personal Weather Stations






























Interactive Weather Map
Tropical Storm Tracking
New forecast layout! Learn more

10-Day Weather Forecast

Advertisements
Track Severe Weather on mobile